sensor_id;sensor_type;location;lat;lon;timestamp;P1;durP1;ratioP1;P2;durP2;ratioP2
15990;SDS011;8100;50.994;4.538;2023-02-07T00:01:04;16.92;;;8.98;;
15990;SDS011;8100;50.994;4.538;2023-02-07T00:03:52;18.42;;;10.00;;
15990;SDS011;8100;50.994;4.538;2023-02-07T00:06:40;18.15;;;9.40;;
15990;SDS011;8100;50.994;4.538;2023-02-07T00:09:28;18.55;;;9.45;;
15990;SDS011;8100;50.994;4.538;2023-02-07T00:12:15;18.85;;;9.35;;
15990;SDS011;8100;50.994;4.538;2023-02-07T00:15:04;20.08;;;10.60;;
15990;SDS011;8100;50.994;4.538;2023-02-07T00:17:52;20.35;;;9.38;;
15990;SDS011;8100;50.994;4.538;2023-02-07T00:20:39;18.17;;;9.75;;
15990;SDS011;8100;50.994;4.538;2023-02-07T00:23:27;19.52;;;9.02;;
15990;SDS011;8100;50.994;4.538;2023-02-07T00:26:15;18.48;;;9.63;;
15990;SDS011;8100;50.994;4.538;2023-02-07T00:29:03;19.38;;;9.95;;
15990;SDS011;8100;50.994;4.538;2023-02-07T00:31:52;17.75;;;10.13;;
15990;SDS011;8100;50.994;4.538;2023-02-07T00:34:39;19.05;;;9.65;;
15990;SDS011;8100;50.994;4.538;2023-02-07T00:37:26;18.92;;;9.32;;
15990;SDS011;8100;50.994;4.538;2023-02-07T00:40:13;16.02;;;9.00;;
15990;SDS011;8100;50.994;4.538;2023-02-07T00:43:02;16.45;;;9.02;;
15990;SDS011;8100;50.994;4.538;2023-02-07T00:45:49;18.10;;;9.13;;
15990;SDS011;8100;50.994;4.538;2023-02-07T00:48:38;20.65;;;9.10;;
15990;SDS011;8100;50.994;4.538;2023-02-07T00:51:25;17.63;;;9.25;;
15990;SDS011;8100;50.994;4.538;2023-02-07T00:54:13;21.55;;;9.70;;
15990;SDS011;8100;50.994;4.538;2023-02-07T00:57:00;17.58;;;8.85;;
15990;SDS011;8100;50.994;4.538;2023-02-07T00:59:47;19.83;;;8.85;;
15990;SDS011;8100;50.994;4.538;2023-02-07T01:02:34;20.85;;;8.32;;
15990;SDS011;8100;50.994;4.538;2023-02-07T01:05:23;20.30;;;9.50;;
15990;SDS011;8100;50.994;4.538;2023-02-07T01:08:10;15.73;;;8.75;;
15990;SDS011;8100;50.994;4.538;2023-02-07T01:11:00;18.20;;;9.00;;
15990;SDS011;8100;50.994;4.538;2023-02-07T01:13:48;19.38;;;8.75;;
15990;SDS011;8100;50.994;4.538;2023-02-07T01:16:35;16.85;;;7.75;;
15990;SDS011;8100;50.994;4.538;2023-02-07T01:19:22;16.90;;;7.88;;
15990;SDS011;8100;50.994;4.538;2023-02-07T01:22:11;14.80;;;8.02;;
15990;SDS011;8100;50.994;4.538;2023-02-07T01:24:58;16.50;;;8.15;;
15990;SDS011;8100;50.994;4.538;2023-02-07T01:27:45;16.05;;;8.48;;
15990;SDS011;8100;50.994;4.538;2023-02-07T01:30:33;18.63;;;9.20;;
15990;SDS011;8100;50.994;4.538;2023-02-07T01:33:20;19.35;;;9.05;;
15990;SDS011;8100;50.994;4.538;2023-02-07T01:36:08;18.50;;;9.00;;
15990;SDS011;8100;50.994;4.538;2023-02-07T01:38:58;18.08;;;9.00;;
15990;SDS011;8100;50.994;4.538;2023-02-07T01:41:48;17.40;;;8.52;;
15990;SDS011;8100;50.994;4.538;2023-02-07T01:47:46;18.63;;;8.93;;
15990;SDS011;8100;50.994;4.538;2023-02-07T01:50:33;19.08;;;8.23;;
15990;SDS011;8100;50.994;4.538;2023-02-07T01:53:23;20.20;;;8.45;;
15990;SDS011;8100;50.994;4.538;2023-02-07T01:56:14;15.27;;;8.20;;
15990;SDS011;8100;50.994;4.538;2023-02-07T01:59:03;14.00;;;8.27;;
15990;SDS011;8100;50.994;4.538;2023-02-07T02:01:51;20.08;;;8.57;;
15990;SDS011;8100;50.994;4.538;2023-02-07T02:04:40;17.63;;;8.82;;
15990;SDS011;8100;50.994;4.538;2023-02-07T02:07:28;17.98;;;8.40;;
15990;SDS011;8100;50.994;4.538;2023-02-07T02:10:18;20.88;;;8.57;;
15990;SDS011;8100;50.994;4.538;2023-02-07T02:13:15;19.30;;;8.43;;
15990;SDS011;8100;50.994;4.538;2023-02-07T02:16:12;19.55;;;8.95;;
15990;SDS011;8100;50.994;4.538;2023-02-07T02:19:15;19.15;;;8.88;;
15990;SDS011;8100;50.994;4.538;2023-02-07T02:22:52;15.18;;;8.30;;
15990;SDS011;8100;50.994;4.538;2023-02-07T02:25:58;14.15;;;7.68;;
15990;SDS011;8100;50.994;4.538;2023-02-07T02:29:15;15.77;;;7.95;;
15990;SDS011;8100;50.994;4.538;2023-02-07T02:36:00;16.33;;;8.02;;
15990;SDS011;8100;50.994;4.538;2023-02-07T02:38:55;15.07;;;8.00;;
15990;SDS011;8100;50.994;4.538;2023-02-07T02:41:50;17.27;;;8.65;;
15990;SDS011;8100;50.994;4.538;2023-02-07T02:44:43;16.35;;;8.25;;
15990;SDS011;8100;50.994;4.538;2023-02-07T02:47:34;15.90;;;7.82;;
15990;SDS011;8100;50.994;4.538;2023-02-07T02:50:24;18.88;;;8.82;;
15990;SDS011;8100;50.994;4.538;2023-02-07T02:53:14;17.92;;;9.13;;
15990;SDS011;8100;50.994;4.538;2023-02-07T02:59:30;18.95;;;8.93;;
15990;SDS011;8100;50.994;4.538;2023-02-07T03:02:28;16.35;;;8.70;;
15990;SDS011;8100;50.994;4.538;2023-02-07T03:05:27;19.77;;;9.43;;
15990;SDS011;8100;50.994;4.538;2023-02-07T03:08:24;17.20;;;8.35;;
15990;SDS011;8100;50.994;4.538;2023-02-07T03:11:18;18.40;;;9.10;;
15990;SDS011;8100;50.994;4.538;2023-02-07T03:14:09;17.05;;;8.57;;
15990;SDS011;8100;50.994;4.538;2023-02-07T03:17:08;16.63;;;8.20;;
15990;SDS011;8100;50.994;4.538;2023-02-07T03:20:03;18.05;;;8.82;;
15990;SDS011;8100;50.994;4.538;2023-02-07T03:22:56;19.50;;;8.93;;
15990;SDS011;8100;50.994;4.538;2023-02-07T03:25:45;17.38;;;8.50;;
15990;SDS011;8100;50.994;4.538;2023-02-07T03:28:35;15.70;;;8.52;;
15990;SDS011;8100;50.994;4.538;2023-02-07T03:31:24;18.55;;;9.15;;
15990;SDS011;8100;50.994;4.538;2023-02-07T03:34:13;16.25;;;8.32;;
15990;SDS011;8100;50.994;4.538;2023-02-07T03:37:05;17.08;;;9.18;;
15990;SDS011;8100;50.994;4.538;2023-02-07T03:39:57;15.70;;;8.60;;
15990;SDS011;8100;50.994;4.538;2023-02-07T03:42:45;14.18;;;8.32;;
15990;SDS011;8100;50.994;4.538;2023-02-07T03:45:36;17.77;;;9.48;;
15990;SDS011;8100;50.994;4.538;2023-02-07T03:48:24;19.15;;;9.23;;
15990;SDS011;8100;50.994;4.538;2023-02-07T03:51:11;22.25;;;10.18;;
15990;SDS011;8100;50.994;4.538;2023-02-07T03:53:58;17.35;;;9.27;;
15990;SDS011;8100;50.994;4.538;2023-02-07T03:56:47;19.95;;;10.05;;
15990;SDS011;8100;50.994;4.538;2023-02-07T03:59:34;15.15;;;8.82;;
15990;SDS011;8100;50.994;4.538;2023-02-07T04:02:21;19.08;;;9.82;;
15990;SDS011;8100;50.994;4.538;2023-02-07T04:05:08;17.23;;;9.38;;
15990;SDS011;8100;50.994;4.538;2023-02-07T04:07:56;16.70;;;8.90;;
15990;SDS011;8100;50.994;4.538;2023-02-07T04:10:43;20.45;;;9.52;;
15990;SDS011;8100;50.994;4.538;2023-02-07T04:13:31;18.13;;;9.40;;
15990;SDS011;8100;50.994;4.538;2023-02-07T04:16:19;20.02;;;9.38;;
15990;SDS011;8100;50.994;4.538;2023-02-07T04:19:06;18.10;;;9.65;;
15990;SDS011;8100;50.994;4.538;2023-02-07T04:21:53;16.42;;;9.15;;
15990;SDS011;8100;50.994;4.538;2023-02-07T04:24:40;19.55;;;9.32;;
15990;SDS011;8100;50.994;4.538;2023-02-07T04:27:28;14.88;;;8.60;;
15990;SDS011;8100;50.994;4.538;2023-02-07T04:30:16;23.13;;;10.07;;
15990;SDS011;8100;50.994;4.538;2023-02-07T04:33:04;19.58;;;9.93;;
15990;SDS011;8100;50.994;4.538;2023-02-07T04:35:54;15.68;;;9.02;;
15990;SDS011;8100;50.994;4.538;2023-02-07T04:38:41;18.70;;;9.25;;
15990;SDS011;8100;50.994;4.538;2023-02-07T04:41:29;20.50;;;9.35;;
15990;SDS011;8100;50.994;4.538;2023-02-07T04:44:16;21.88;;;9.60;;
15990;SDS011;8100;50.994;4.538;2023-02-07T04:47:05;16.58;;;8.70;;
15990;SDS011;8100;50.994;4.538;2023-02-07T04:49:53;20.48;;;9.60;;
15990;SDS011;8100;50.994;4.538;2023-02-07T04:52:40;22.83;;;10.40;;
15990;SDS011;8100;50.994;4.538;2023-02-07T04:55:27;21.15;;;10.50;;
15990;SDS011;8100;50.994;4.538;2023-02-07T04:58:14;21.33;;;9.98;;
15990;SDS011;8100;50.994;4.538;2023-02-07T05:01:02;20.52;;;11.07;;
15990;SDS011;8100;50.994;4.538;2023-02-07T05:03:51;23.02;;;10.68;;
15990;SDS011;8100;50.994;4.538;2023-02-07T05:06:38;31.65;;;11.02;;
15990;SDS011;8100;50.994;4.538;2023-02-07T05:09:25;24.27;;;10.05;;
15990;SDS011;8100;50.994;4.538;2023-02-07T05:12:13;21.13;;;10.18;;
15990;SDS011;8100;50.994;4.538;2023-02-07T05:15:00;32.13;;;12.73;;
15990;SDS011;8100;50.994;4.538;2023-02-07T05:17:47;21.30;;;10.77;;
15990;SDS011;8100;50.994;4.538;2023-02-07T05:20:36;25.90;;;11.43;;
15990;SDS011;8100;50.994;4.538;2023-02-07T05:23:23;26.00;;;12.00;;
15990;SDS011;8100;50.994;4.538;2023-02-07T05:26:10;25.38;;;10.10;;
15990;SDS011;8100;50.994;4.538;2023-02-07T05:28:57;22.00;;;10.27;;
15990;SDS011;8100;50.994;4.538;2023-02-07T05:31:44;21.27;;;11.65;;
15990;SDS011;8100;50.994;4.538;2023-02-07T05:34:49;18.92;;;10.50;;
15990;SDS011;8100;50.994;4.538;2023-02-07T05:37:38;16.23;;;9.60;;
15990;SDS011;8100;50.994;4.538;2023-02-07T05:40:25;15.10;;;10.27;;
15990;SDS011;8100;50.994;4.538;2023-02-07T05:43:13;20.60;;;10.98;;
15990;SDS011;8100;50.994;4.538;2023-02-07T05:46:00;16.85;;;10.40;;
15990;SDS011;8100;50.994;4.538;2023-02-07T05:48:47;20.20;;;11.60;;
15990;SDS011;8100;50.994;4.538;2023-02-07T05:51:35;18.20;;;11.18;;
15990;SDS011;8100;50.994;4.538;2023-02-07T05:54:23;20.20;;;11.63;;
15990;SDS011;8100;50.994;4.538;2023-02-07T05:57:11;17.92;;;9.45;;
15990;SDS011;8100;50.994;4.538;2023-02-07T05:59:59;15.60;;;10.63;;
15990;SDS011;8100;50.994;4.538;2023-02-07T06:02:46;18.17;;;12.10;;
15990;SDS011;8100;50.994;4.538;2023-02-07T06:05:33;15.45;;;8.82;;
15990;SDS011;8100;50.994;4.538;2023-02-07T06:08:20;18.02;;;9.02;;
15990;SDS011;8100;50.994;4.538;2023-02-07T06:11:09;22.67;;;9.38;;
15990;SDS011;8100;50.994;4.538;2023-02-07T06:13:56;15.63;;;7.78;;
15990;SDS011;8100;50.994;4.538;2023-02-07T06:16:44;13.38;;;9.00;;
15990;SDS011;8100;50.994;4.538;2023-02-07T06:19:31;13.88;;;9.40;;
15990;SDS011;8100;50.994;4.538;2023-02-07T06:22:18;17.20;;;8.05;;
15990;SDS011;8100;50.994;4.538;2023-02-07T06:25:06;12.57;;;8.15;;
15990;SDS011;8100;50.994;4.538;2023-02-07T06:27:57;18.10;;;9.73;;
15990;SDS011;8100;50.994;4.538;2023-02-07T06:30:45;16.23;;;9.48;;
15990;SDS011;8100;50.994;4.538;2023-02-07T06:33:32;12.20;;;8.15;;
15990;SDS011;8100;50.994;4.538;2023-02-07T06:36:19;14.43;;;8.43;;
15990;SDS011;8100;50.994;4.538;2023-02-07T06:39:07;16.25;;;8.48;;
15990;SDS011;8100;50.994;4.538;2023-02-07T06:41:54;13.25;;;8.55;;
15990;SDS011;8100;50.994;4.538;2023-02-07T06:44:43;12.88;;;7.78;;
15990;SDS011;8100;50.994;4.538;2023-02-07T06:47:30;15.88;;;8.32;;
15990;SDS011;8100;50.994;4.538;2023-02-07T06:50:17;13.65;;;8.35;;
15990;SDS011;8100;50.994;4.538;2023-02-07T06:53:04;20.85;;;9.52;;
15990;SDS011;8100;50.994;4.538;2023-02-07T06:55:51;18.52;;;9.13;;
15990;SDS011;8100;50.994;4.538;2023-02-07T06:58:39;17.45;;;8.15;;
15990;SDS011;8100;50.994;4.538;2023-02-07T07:01:27;11.25;;;8.32;;
15990;SDS011;8100;50.994;4.538;2023-02-07T07:04:14;19.45;;;8.13;;
15990;SDS011;8100;50.994;4.538;2023-02-07T07:07:02;11.10;;;8.88;;
15990;SDS011;8100;50.994;4.538;2023-02-07T07:09:50;19.63;;;8.45;;
15990;SDS011;8100;50.994;4.538;2023-02-07T07:12:37;18.45;;;8.45;;
15990;SDS011;8100;50.994;4.538;2023-02-07T07:15:24;14.98;;;7.50;;
15990;SDS011;8100;50.994;4.538;2023-02-07T07:18:13;10.93;;;7.57;;
15990;SDS011;8100;50.994;4.538;2023-02-07T07:21:00;17.05;;;8.25;;
15990;SDS011;8100;50.994;4.538;2023-02-07T07:23:48;21.27;;;8.60;;
15990;SDS011;8100;50.994;4.538;2023-02-07T07:26:35;19.95;;;9.27;;
15990;SDS011;8100;50.994;4.538;2023-02-07T07:29:23;12.68;;;8.77;;
15990;SDS011;8100;50.994;4.538;2023-02-07T07:32:10;16.58;;;8.90;;
15990;SDS011;8100;50.994;4.538;2023-02-07T07:34:59;15.25;;;9.38;;
15990;SDS011;8100;50.994;4.538;2023-02-07T07:37:46;20.25;;;10.20;;
15990;SDS011;8100;50.994;4.538;2023-02-07T07:40:33;15.60;;;8.88;;
15990;SDS011;8100;50.994;4.538;2023-02-07T07:43:20;14.63;;;9.30;;
15990;SDS011;8100;50.994;4.538;2023-02-07T07:46:08;19.80;;;9.77;;
15990;SDS011;8100;50.994;4.538;2023-02-07T07:48:55;27.00;;;9.13;;
15990;SDS011;8100;50.994;4.538;2023-02-07T07:51:43;22.25;;;9.27;;
15990;SDS011;8100;50.994;4.538;2023-02-07T07:54:31;22.10;;;9.02;;
15990;SDS011;8100;50.994;4.538;2023-02-07T07:57:18;20.65;;;8.90;;
15990;SDS011;8100;50.994;4.538;2023-02-07T08:00:05;17.80;;;9.15;;
15990;SDS011;8100;50.994;4.538;2023-02-07T08:02:53;32.78;;;8.52;;
15990;SDS011;8100;50.994;4.538;2023-02-07T08:05:40;20.52;;;8.75;;
15990;SDS011;8100;50.994;4.538;2023-02-07T08:08:30;17.35;;;8.98;;
15990;SDS011;8100;50.994;4.538;2023-02-07T08:11:17;16.58;;;10.02;;
15990;SDS011;8100;50.994;4.538;2023-02-07T08:14:04;22.25;;;9.45;;
15990;SDS011;8100;50.994;4.538;2023-02-07T08:16:52;21.75;;;11.32;;
15990;SDS011;8100;50.994;4.538;2023-02-07T08:19:39;20.10;;;11.10;;
15990;SDS011;8100;50.994;4.538;2023-02-07T08:22:26;21.70;;;11.20;;
15990;SDS011;8100;50.994;4.538;2023-02-07T08:25:15;23.15;;;11.90;;
15990;SDS011;8100;50.994;4.538;2023-02-07T08:28:02;18.73;;;11.75;;
15990;SDS011;8100;50.994;4.538;2023-02-07T08:30:49;21.25;;;12.13;;
15990;SDS011;8100;50.994;4.538;2023-02-07T08:33:37;21.65;;;13.27;;
15990;SDS011;8100;50.994;4.538;2023-02-07T08:36:24;21.73;;;12.45;;
15990;SDS011;8100;50.994;4.538;2023-02-07T08:39:11;20.63;;;12.48;;
15990;SDS011;8100;50.994;4.538;2023-02-07T08:42:00;21.40;;;12.75;;
15990;SDS011;8100;50.994;4.538;2023-02-07T08:44:47;20.80;;;12.70;;
15990;SDS011;8100;50.994;4.538;2023-02-07T08:47:35;22.20;;;12.55;;
15990;SDS011;8100;50.994;4.538;2023-02-07T08:50:22;21.08;;;12.13;;
15990;SDS011;8100;50.994;4.538;2023-02-07T08:53:09;23.13;;;13.00;;
15990;SDS011;8100;50.994;4.538;2023-02-07T08:55:57;20.33;;;12.25;;
15990;SDS011;8100;50.994;4.538;2023-02-07T08:58:45;22.70;;;12.30;;
15990;SDS011;8100;50.994;4.538;2023-02-07T09:01:33;22.27;;;12.90;;
15990;SDS011;8100;50.994;4.538;2023-02-07T09:04:20;20.77;;;12.15;;
15990;SDS011;8100;50.994;4.538;2023-02-07T09:07:07;20.10;;;12.00;;
15990;SDS011;8100;50.994;4.538;2023-02-07T09:09:54;21.95;;;11.85;;
15990;SDS011;8100;50.994;4.538;2023-02-07T09:12:42;21.30;;;12.25;;
15990;SDS011;8100;50.994;4.538;2023-02-07T09:15:30;21.63;;;12.43;;
15990;SDS011;8100;50.994;4.538;2023-02-07T09:18:17;18.75;;;12.02;;
15990;SDS011;8100;50.994;4.538;2023-02-07T09:21:05;19.95;;;11.80;;
15990;SDS011;8100;50.994;4.538;2023-02-07T09:23:52;18.42;;;11.40;;
15990;SDS011;8100;50.994;4.538;2023-02-07T09:26:39;20.42;;;11.52;;
15990;SDS011;8100;50.994;4.538;2023-02-07T09:29:27;23.48;;;12.18;;
15990;SDS011;8100;50.994;4.538;2023-02-07T09:32:15;19.20;;;11.27;;
15990;SDS011;8100;50.994;4.538;2023-02-07T09:35:03;20.58;;;11.40;;
15990;SDS011;8100;50.994;4.538;2023-02-07T09:37:52;21.73;;;11.00;;
15990;SDS011;8100;50.994;4.538;2023-02-07T09:40:39;21.85;;;11.13;;
15990;SDS011;8100;50.994;4.538;2023-02-07T09:43:30;18.77;;;11.25;;
15990;SDS011;8100;50.994;4.538;2023-02-07T09:46:25;18.15;;;11.15;;
15990;SDS011;8100;50.994;4.538;2023-02-07T09:49:26;18.80;;;10.38;;
15990;SDS011;8100;50.994;4.538;2023-02-07T09:52:21;21.02;;;11.63;;
15990;SDS011;8100;50.994;4.538;2023-02-07T09:55:14;19.55;;;10.80;;
15990;SDS011;8100;50.994;4.538;2023-02-07T09:58:07;21.60;;;10.70;;
15990;SDS011;8100;50.994;4.538;2023-02-07T10:01:00;17.75;;;11.15;;
15990;SDS011;8100;50.994;4.538;2023-02-07T10:03:54;19.25;;;11.05;;
15990;SDS011;8100;50.994;4.538;2023-02-07T10:06:53;18.38;;;10.55;;
15990;SDS011;8100;50.994;4.538;2023-02-07T10:09:43;17.20;;;10.45;;
15990;SDS011;8100;50.994;4.538;2023-02-07T10:12:37;16.67;;;10.38;;
15990;SDS011;8100;50.994;4.538;2023-02-07T10:15:41;17.27;;;9.70;;
15990;SDS011;8100;50.994;4.538;2023-02-07T10:18:42;19.48;;;10.10;;
15990;SDS011;8100;50.994;4.538;2023-02-07T10:21:33;19.20;;;8.70;;
15990;SDS011;8100;50.994;4.538;2023-02-07T10:24:43;13.65;;;8.02;;
15990;SDS011;8100;50.994;4.538;2023-02-07T10:27:55;15.52;;;8.50;;
15990;SDS011;8100;50.994;4.538;2023-02-07T10:30:50;15.82;;;8.52;;
15990;SDS011;8100;50.994;4.538;2023-02-07T10:33:42;16.30;;;9.45;;
15990;SDS011;8100;50.994;4.538;2023-02-07T10:36:34;15.40;;;8.50;;
15990;SDS011;8100;50.994;4.538;2023-02-07T10:39:21;18.23;;;8.77;;
15990;SDS011;8100;50.994;4.538;2023-02-07T10:42:15;15.10;;;7.63;;
15990;SDS011;8100;50.994;4.538;2023-02-07T10:45:04;16.33;;;7.75;;
15990;SDS011;8100;50.994;4.538;2023-02-07T10:47:52;14.38;;;7.78;;
15990;SDS011;8100;50.994;4.538;2023-02-07T10:50:42;13.95;;;7.30;;
15990;SDS011;8100;50.994;4.538;2023-02-07T10:53:42;12.07;;;6.90;;
15990;SDS011;8100;50.994;4.538;2023-02-07T10:56:30;11.95;;;6.90;;
15990;SDS011;8100;50.994;4.538;2023-02-07T10:59:34;12.20;;;6.43;;
15990;SDS011;8100;50.994;4.538;2023-02-07T11:05:38;9.43;;;5.32;;
15990;SDS011;8100;50.994;4.538;2023-02-07T11:08:26;8.60;;;5.32;;
15990;SDS011;8100;50.994;4.538;2023-02-07T11:11:25;7.55;;;4.78;;
15990;SDS011;8100;50.994;4.538;2023-02-07T11:14:17;8.50;;;4.80;;
15990;SDS011;8100;50.994;4.538;2023-02-07T11:17:14;11.80;;;5.13;;
15990;SDS011;8100;50.994;4.538;2023-02-07T11:20:07;8.88;;;5.13;;
15990;SDS011;8100;50.994;4.538;2023-02-07T11:23:06;9.07;;;4.68;;
15990;SDS011;8100;50.994;4.538;2023-02-07T11:25:57;9.27;;;4.72;;
15990;SDS011;8100;50.994;4.538;2023-02-07T11:28:45;10.18;;;4.43;;
15990;SDS011;8100;50.994;4.538;2023-02-07T11:31:36;7.93;;;4.47;;
15990;SDS011;8100;50.994;4.538;2023-02-07T11:34:29;9.95;;;4.15;;
15990;SDS011;8100;50.994;4.538;2023-02-07T11:37:27;7.13;;;3.90;;
15990;SDS011;8100;50.994;4.538;2023-02-07T11:40:23;6.25;;;3.92;;
15990;SDS011;8100;50.994;4.538;2023-02-07T11:43:14;6.78;;;4.15;;
15990;SDS011;8100;50.994;4.538;2023-02-07T11:46:04;6.88;;;4.10;;
15990;SDS011;8100;50.994;4.538;2023-02-07T11:48:55;10.40;;;5.07;;
15990;SDS011;8100;50.994;4.538;2023-02-07T11:51:45;8.23;;;4.32;;
15990;SDS011;8100;50.994;4.538;2023-02-07T11:54:37;8.05;;;4.68;;
15990;SDS011;8100;50.994;4.538;2023-02-07T11:57:26;8.25;;;4.45;;
15990;SDS011;8100;50.994;4.538;2023-02-07T12:00:19;9.77;;;5.47;;
15990;SDS011;8100;50.994;4.538;2023-02-07T12:03:16;7.55;;;4.82;;
15990;SDS011;8100;50.994;4.538;2023-02-07T12:06:08;7.10;;;4.53;;
15990;SDS011;8100;50.994;4.538;2023-02-07T12:09:02;7.82;;;4.47;;
15990;SDS011;8100;50.994;4.538;2023-02-07T12:11:58;6.70;;;4.13;;
15990;SDS011;8100;50.994;4.538;2023-02-07T12:14:50;7.35;;;3.88;;
15990;SDS011;8100;50.994;4.538;2023-02-07T12:17:41;8.43;;;4.65;;
15990;SDS011;8100;50.994;4.538;2023-02-07T12:20:40;7.63;;;4.28;;
15990;SDS011;8100;50.994;4.538;2023-02-07T12:23:35;6.97;;;4.43;;
15990;SDS011;8100;50.994;4.538;2023-02-07T12:26:28;9.13;;;4.75;;
15990;SDS011;8100;50.994;4.538;2023-02-07T12:29:22;8.48;;;4.90;;
15990;SDS011;8100;50.994;4.538;2023-02-07T12:32:19;9.77;;;4.72;;
15990;SDS011;8100;50.994;4.538;2023-02-07T12:35:14;7.47;;;4.57;;
15990;SDS011;8100;50.994;4.538;2023-02-07T12:38:08;7.70;;;5.20;;
15990;SDS011;8100;50.994;4.538;2023-02-07T12:41:01;8.55;;;4.57;;
15990;SDS011;8100;50.994;4.538;2023-02-07T12:44:03;7.38;;;4.22;;
15990;SDS011;8100;50.994;4.538;2023-02-07T12:46:58;7.63;;;4.30;;
15990;SDS011;8100;50.994;4.538;2023-02-07T12:49:55;6.68;;;4.40;;
15990;SDS011;8100;50.994;4.538;2023-02-07T12:52:54;6.50;;;4.22;;
15990;SDS011;8100;50.994;4.538;2023-02-07T12:55:52;7.45;;;4.82;;
15990;SDS011;8100;50.994;4.538;2023-02-07T12:58:47;8.38;;;4.90;;
15990;SDS011;8100;50.994;4.538;2023-02-07T13:01:45;7.18;;;3.90;;
15990;SDS011;8100;50.994;4.538;2023-02-07T13:04:48;6.63;;;3.88;;
15990;SDS011;8100;50.994;4.538;2023-02-07T13:08:09;8.68;;;4.22;;
15990;SDS011;8100;50.994;4.538;2023-02-07T13:11:06;6.97;;;3.90;;
15990;SDS011;8100;50.994;4.538;2023-02-07T13:14:04;7.38;;;4.35;;
15990;SDS011;8100;50.994;4.538;2023-02-07T13:17:35;6.90;;;3.80;;
15990;SDS011;8100;50.994;4.538;2023-02-07T13:20:34;7.45;;;3.92;;
15990;SDS011;8100;50.994;4.538;2023-02-07T13:23:36;5.97;;;3.88;;
15990;SDS011;8100;50.994;4.538;2023-02-07T13:26:27;7.30;;;3.70;;
15990;SDS011;8100;50.994;4.538;2023-02-07T13:29:16;5.50;;;3.80;;
15990;SDS011;8100;50.994;4.538;2023-02-07T13:32:05;6.32;;;3.63;;
15990;SDS011;8100;50.994;4.538;2023-02-07T13:34:59;6.43;;;4.25;;
15990;SDS011;8100;50.994;4.538;2023-02-07T13:37:50;5.72;;;3.78;;
15990;SDS011;8100;50.994;4.538;2023-02-07T13:40:49;6.38;;;4.05;;
15990;SDS011;8100;50.994;4.538;2023-02-07T13:43:44;7.35;;;4.28;;
15990;SDS011;8100;50.994;4.538;2023-02-07T13:46:45;7.03;;;4.35;;
15990;SDS011;8100;50.994;4.538;2023-02-07T13:49:42;5.35;;;3.72;;
15990;SDS011;8100;50.994;4.538;2023-02-07T13:52:38;6.35;;;4.15;;
15990;SDS011;8100;50.994;4.538;2023-02-07T13:55:31;6.63;;;4.32;;
15990;SDS011;8100;50.994;4.538;2023-02-07T14:01:57;7.28;;;4.55;;
15990;SDS011;8100;50.994;4.538;2023-02-07T14:04:46;5.68;;;3.83;;
15990;SDS011;8100;50.994;4.538;2023-02-07T14:07:37;8.23;;;4.10;;
15990;SDS011;8100;50.994;4.538;2023-02-07T14:10:38;5.60;;;3.63;;
15990;SDS011;8100;50.994;4.538;2023-02-07T14:13:30;7.22;;;4.70;;
15990;SDS011;8100;50.994;4.538;2023-02-07T14:16:41;7.35;;;4.20;;
15990;SDS011;8100;50.994;4.538;2023-02-07T14:19:49;6.65;;;4.70;;
15990;SDS011;8100;50.994;4.538;2023-02-07T14:25:58;7.13;;;4.45;;
15990;SDS011;8100;50.994;4.538;2023-02-07T14:28:45;10.82;;;4.72;;
15990;SDS011;8100;50.994;4.538;2023-02-07T14:31:32;8.07;;;4.68;;
15990;SDS011;8100;50.994;4.538;2023-02-07T14:34:20;6.88;;;4.75;;
15990;SDS011;8100;50.994;4.538;2023-02-07T14:37:18;8.00;;;5.10;;
15990;SDS011;8100;50.994;4.538;2023-02-07T14:40:15;8.20;;;4.97;;
15990;SDS011;8100;50.994;4.538;2023-02-07T14:43:06;9.82;;;4.97;;
15990;SDS011;8100;50.994;4.538;2023-02-07T14:46:03;8.60;;;5.47;;
15990;SDS011;8100;50.994;4.538;2023-02-07T14:48:57;9.57;;;6.07;;
15990;SDS011;8100;50.994;4.538;2023-02-07T14:51:48;10.77;;;5.90;;
15990;SDS011;8100;50.994;4.538;2023-02-07T14:54:40;8.63;;;5.30;;
15990;SDS011;8100;50.994;4.538;2023-02-07T14:57:34;11.68;;;6.32;;
15990;SDS011;8100;50.994;4.538;2023-02-07T15:00:26;8.73;;;5.57;;
15990;SDS011;8100;50.994;4.538;2023-02-07T15:03:18;9.35;;;5.68;;
15990;SDS011;8100;50.994;4.538;2023-02-07T15:06:14;10.00;;;5.20;;
15990;SDS011;8100;50.994;4.538;2023-02-07T15:09:03;8.80;;;5.25;;
15990;SDS011;8100;50.994;4.538;2023-02-07T15:11:51;10.25;;;5.63;;
15990;SDS011;8100;50.994;4.538;2023-02-07T15:14:41;10.13;;;5.97;;
15990;SDS011;8100;50.994;4.538;2023-02-07T15:17:28;9.60;;;5.25;;
15990;SDS011;8100;50.994;4.538;2023-02-07T15:20:17;8.55;;;5.22;;
15990;SDS011;8100;50.994;4.538;2023-02-07T15:23:07;9.35;;;5.05;;
15990;SDS011;8100;50.994;4.538;2023-02-07T15:26:01;7.90;;;4.97;;
15990;SDS011;8100;50.994;4.538;2023-02-07T15:28:55;11.45;;;5.53;;
15990;SDS011;8100;50.994;4.538;2023-02-07T15:31:46;8.73;;;5.70;;
15990;SDS011;8100;50.994;4.538;2023-02-07T15:34:33;12.02;;;5.28;;
15990;SDS011;8100;50.994;4.538;2023-02-07T15:37:21;9.18;;;5.53;;
15990;SDS011;8100;50.994;4.538;2023-02-07T15:40:12;9.88;;;5.25;;
15990;SDS011;8100;50.994;4.538;2023-02-07T15:43:00;8.60;;;5.20;;
15990;SDS011;8100;50.994;4.538;2023-02-07T15:45:56;8.52;;;5.43;;
15990;SDS011;8100;50.994;4.538;2023-02-07T15:48:48;9.40;;;5.63;;
15990;SDS011;8100;50.994;4.538;2023-02-07T15:51:37;10.27;;;6.15;;
15990;SDS011;8100;50.994;4.538;2023-02-07T15:54:26;8.25;;;5.63;;
15990;SDS011;8100;50.994;4.538;2023-02-07T15:57:17;8.07;;;5.28;;
15990;SDS011;8100;50.994;4.538;2023-02-07T16:00:13;9.55;;;5.68;;
15990;SDS011;8100;50.994;4.538;2023-02-07T16:03:04;10.32;;;5.47;;
15990;SDS011;8100;50.994;4.538;2023-02-07T16:05:59;10.60;;;5.30;;
15990;SDS011;8100;50.994;4.538;2023-02-07T16:08:59;8.93;;;5.82;;
15990;SDS011;8100;50.994;4.538;2023-02-07T16:11:47;8.90;;;5.78;;
15990;SDS011;8100;50.994;4.538;2023-02-07T16:14:38;9.27;;;5.38;;
15990;SDS011;8100;50.994;4.538;2023-02-07T16:17:35;8.90;;;5.88;;
15990;SDS011;8100;50.994;4.538;2023-02-07T16:20:24;9.10;;;5.50;;
15990;SDS011;8100;50.994;4.538;2023-02-07T16:23:14;10.10;;;5.75;;
15990;SDS011;8100;50.994;4.538;2023-02-07T16:26:01;10.30;;;5.97;;
15990;SDS011;8100;50.994;4.538;2023-02-07T16:28:48;10.68;;;6.22;;
15990;SDS011;8100;50.994;4.538;2023-02-07T16:31:36;8.90;;;5.40;;
15990;SDS011;8100;50.994;4.538;2023-02-07T16:34:23;6.85;;;4.90;;
15990;SDS011;8100;50.994;4.538;2023-02-07T16:37:10;8.77;;;5.53;;
15990;SDS011;8100;50.994;4.538;2023-02-07T16:40:00;7.82;;;5.25;;
15990;SDS011;8100;50.994;4.538;2023-02-07T16:42:47;8.95;;;5.85;;
15990;SDS011;8100;50.994;4.538;2023-02-07T16:45:36;9.73;;;5.90;;
15990;SDS011;8100;50.994;4.538;2023-02-07T16:48:23;8.82;;;5.70;;
15990;SDS011;8100;50.994;4.538;2023-02-07T16:51:10;11.57;;;5.97;;
15990;SDS011;8100;50.994;4.538;2023-02-07T16:53:58;11.55;;;5.40;;
15990;SDS011;8100;50.994;4.538;2023-02-07T16:56:47;9.60;;;6.07;;
15990;SDS011;8100;50.994;4.538;2023-02-07T16:59:38;12.20;;;5.85;;
15990;SDS011;8100;50.994;4.538;2023-02-07T17:02:25;9.32;;;5.80;;
15990;SDS011;8100;50.994;4.538;2023-02-07T17:05:13;11.82;;;5.95;;
15990;SDS011;8100;50.994;4.538;2023-02-07T17:08:00;12.18;;;6.32;;
15990;SDS011;8100;50.994;4.538;2023-02-07T17:10:48;9.68;;;6.32;;
15990;SDS011;8100;50.994;4.538;2023-02-07T17:13:41;10.20;;;6.43;;
15990;SDS011;8100;50.994;4.538;2023-02-07T17:16:28;12.80;;;6.70;;
15990;SDS011;8100;50.994;4.538;2023-02-07T17:19:17;13.10;;;6.57;;
15990;SDS011;8100;50.994;4.538;2023-02-07T17:22:07;9.65;;;6.15;;
15990;SDS011;8100;50.994;4.538;2023-02-07T17:24:54;10.25;;;6.35;;
15990;SDS011;8100;50.994;4.538;2023-02-07T17:27:44;10.32;;;6.32;;
15990;SDS011;8100;50.994;4.538;2023-02-07T17:30:33;10.50;;;6.65;;